sensor_id;sensor_type;location;lat;lon;timestamp;P1;durP1;ratioP1;P2;durP2;ratioP2
19396;SDS011;9834;48.076;11.878;2023-11-19T00:01:38;1.97;;;1.80;;
19396;SDS011;9834;48.076;11.878;2023-11-19T00:04:05;2.17;;;1.93;;
19396;SDS011;9834;48.076;11.878;2023-11-19T00:06:34;3.17;;;1.67;;
19396;SDS011;9834;48.076;11.878;2023-11-19T00:09:09;2.10;;;1.90;;
19396;SDS011;9834;48.076;11.878;2023-11-19T00:11:38;2.43;;;1.63;;
19396;SDS011;9834;48.076;11.878;2023-11-19T00:14:05;2.03;;;1.53;;
19396;SDS011;9834;48.076;11.878;2023-11-19T00:16:36;2.33;;;2.13;;
19396;SDS011;9834;48.076;11.878;2023-11-19T00:19:04;1.53;;;1.43;;
19396;SDS011;9834;48.076;11.878;2023-11-19T00:21:34;2.27;;;1.87;;
19396;SDS011;9834;48.076;11.878;2023-11-19T00:24:05;2.40;;;1.87;;
19396;SDS011;9834;48.076;11.878;2023-11-19T00:26:33;1.37;;;1.27;;
19396;SDS011;9834;48.076;11.878;2023-11-19T00:29:05;1.70;;;1.60;;
19396;SDS011;9834;48.076;11.878;2023-11-19T00:31:32;1.67;;;1.57;;
19396;SDS011;9834;48.076;11.878;2023-11-19T00:34:03;2.17;;;1.80;;
19396;SDS011;9834;48.076;11.878;2023-11-19T00:36:31;2.53;;;1.90;;
19396;SDS011;9834;48.076;11.878;2023-11-19T00:38:58;2.53;;;1.60;;
19396;SDS011;9834;48.076;11.878;2023-11-19T00:41:28;1.83;;;1.50;;
19396;SDS011;9834;48.076;11.878;2023-11-19T00:43:55;2.57;;;1.80;;
19396;SDS011;9834;48.076;11.878;2023-11-19T00:46:24;2.03;;;1.30;;
19396;SDS011;9834;48.076;11.878;2023-11-19T00:48:52;1.40;;;1.30;;
19396;SDS011;9834;48.076;11.878;2023-11-19T00:51:20;2.70;;;1.37;;
19396;SDS011;9834;48.076;11.878;2023-11-19T00:53:53;1.07;;;1.03;;
19396;SDS011;9834;48.076;11.878;2023-11-19T00:56:34;1.27;;;1.17;;
19396;SDS011;9834;48.076;11.878;2023-11-19T00:59:02;1.57;;;1.20;;
19396;SDS011;9834;48.076;11.878;2023-11-19T01:01:31;0.97;;;0.70;;
19396;SDS011;9834;48.076;11.878;2023-11-19T01:04:02;1.20;;;1.10;;
19396;SDS011;9834;48.076;11.878;2023-11-19T01:06:30;1.00;;;0.90;;
19396;SDS011;9834;48.076;11.878;2023-11-19T01:08:58;1.23;;;1.13;;
19396;SDS011;9834;48.076;11.878;2023-11-19T01:11:26;0.97;;;0.97;;
19396;SDS011;9834;48.076;11.878;2023-11-19T01:13:56;0.90;;;0.90;;
19396;SDS011;9834;48.076;11.878;2023-11-19T01:16:29;1.17;;;1.07;;
19396;SDS011;9834;48.076;11.878;2023-11-19T01:18:58;0.97;;;0.93;;
19396;SDS011;9834;48.076;11.878;2023-11-19T01:21:29;1.10;;;1.00;;
19396;SDS011;9834;48.076;11.878;2023-11-19T01:23:57;1.73;;;1.30;;
19396;SDS011;9834;48.076;11.878;2023-11-19T01:26:25;1.17;;;1.07;;
19396;SDS011;9834;48.076;11.878;2023-11-19T01:28:57;0.87;;;0.83;;
19396;SDS011;9834;48.076;11.878;2023-11-19T01:31:24;1.00;;;0.90;;
19396;SDS011;9834;48.076;11.878;2023-11-19T01:33:51;1.20;;;1.10;;
19396;SDS011;9834;48.076;11.878;2023-11-19T01:36:20;1.37;;;1.27;;
19396;SDS011;9834;48.076;11.878;2023-11-19T01:38:48;0.87;;;0.87;;
19396;SDS011;9834;48.076;11.878;2023-11-19T01:41:16;1.17;;;1.07;;
19396;SDS011;9834;48.076;11.878;2023-11-19T01:43:43;1.70;;;1.60;;
19396;SDS011;9834;48.076;11.878;2023-11-19T01:46:15;2.53;;;1.13;;
19396;SDS011;9834;48.076;11.878;2023-11-19T01:48:45;1.20;;;1.10;;
19396;SDS011;9834;48.076;11.878;2023-11-19T01:51:16;1.00;;;0.93;;
19396;SDS011;9834;48.076;11.878;2023-11-19T01:53:46;1.40;;;1.30;;
19396;SDS011;9834;48.076;11.878;2023-11-19T01:56:15;1.80;;;1.60;;
19396;SDS011;9834;48.076;11.878;2023-11-19T01:58:43;1.60;;;1.47;;
19396;SDS011;9834;48.076;11.878;2023-11-19T02:01:12;2.13;;;1.67;;
19396;SDS011;9834;48.076;11.878;2023-11-19T02:03:45;1.57;;;1.20;;
19396;SDS011;9834;48.076;11.878;2023-11-19T02:06:19;2.20;;;1.73;;
19396;SDS011;9834;48.076;11.878;2023-11-19T02:08:53;2.70;;;1.83;;
19396;SDS011;9834;48.076;11.878;2023-11-19T02:11:23;4.53;;;1.70;;
19396;SDS011;9834;48.076;11.878;2023-11-19T02:13:54;1.57;;;1.33;;
19396;SDS011;9834;48.076;11.878;2023-11-19T02:16:22;3.03;;;2.07;;
19396;SDS011;9834;48.076;11.878;2023-11-19T02:18:49;2.87;;;2.37;;
19396;SDS011;9834;48.076;11.878;2023-11-19T02:21:17;2.43;;;1.97;;
19396;SDS011;9834;48.076;11.878;2023-11-19T02:23:44;1.43;;;1.20;;
19396;SDS011;9834;48.076;11.878;2023-11-19T02:26:16;2.63;;;2.23;;
19396;SDS011;9834;48.076;11.878;2023-11-19T02:28:55;2.43;;;2.17;;
19396;SDS011;9834;48.076;11.878;2023-11-19T02:31:22;2.70;;;2.40;;
19396;SDS011;9834;48.076;11.878;2023-11-19T02:33:52;2.53;;;2.13;;
19396;SDS011;9834;48.076;11.878;2023-11-19T02:36:28;2.67;;;2.40;;
19396;SDS011;9834;48.076;11.878;2023-11-19T02:38:57;2.33;;;1.97;;
19396;SDS011;9834;48.076;11.878;2023-11-19T02:41:25;3.37;;;2.50;;
19396;SDS011;9834;48.076;11.878;2023-11-19T02:44:10;2.43;;;2.03;;
19396;SDS011;9834;48.076;11.878;2023-11-19T02:46:38;3.17;;;2.10;;
19396;SDS011;9834;48.076;11.878;2023-11-19T02:49:07;2.20;;;2.00;;
19396;SDS011;9834;48.076;11.878;2023-11-19T02:51:35;2.60;;;1.80;;
19396;SDS011;9834;48.076;11.878;2023-11-19T02:54:08;2.07;;;1.67;;
19396;SDS011;9834;48.076;11.878;2023-11-19T02:56:36;3.53;;;2.20;;
19396;SDS011;9834;48.076;11.878;2023-11-19T02:59:05;3.77;;;2.30;;
19396;SDS011;9834;48.076;11.878;2023-11-19T03:01:52;1.80;;;1.70;;
19396;SDS011;9834;48.076;11.878;2023-11-19T03:04:20;2.50;;;2.00;;
19396;SDS011;9834;48.076;11.878;2023-11-19T03:06:50;2.53;;;1.93;;
19396;SDS011;9834;48.076;11.878;2023-11-19T03:09:23;3.23;;;2.37;;
19396;SDS011;9834;48.076;11.878;2023-11-19T03:12:02;3.00;;;2.43;;
19396;SDS011;9834;48.076;11.878;2023-11-19T03:14:33;4.80;;;2.87;;
19396;SDS011;9834;48.076;11.878;2023-11-19T03:17:01;3.47;;;2.53;;
19396;SDS011;9834;48.076;11.878;2023-11-19T03:19:31;3.87;;;3.00;;
19396;SDS011;9834;48.076;11.878;2023-11-19T03:22:01;4.90;;;3.43;;
19396;SDS011;9834;48.076;11.878;2023-11-19T03:24:32;5.93;;;3.63;;
19396;SDS011;9834;48.076;11.878;2023-11-19T03:27:01;5.47;;;3.77;;
19396;SDS011;9834;48.076;11.878;2023-11-19T03:29:30;5.97;;;3.23;;
19396;SDS011;9834;48.076;11.878;2023-11-19T03:32:05;5.63;;;3.60;;
19396;SDS011;9834;48.076;11.878;2023-11-19T03:34:33;5.17;;;3.70;;
19396;SDS011;9834;48.076;11.878;2023-11-19T03:37:02;4.23;;;3.37;;
19396;SDS011;9834;48.076;11.878;2023-11-19T03:39:30;6.00;;;4.07;;
19396;SDS011;9834;48.076;11.878;2023-11-19T03:41:58;3.93;;;3.40;;
19396;SDS011;9834;48.076;11.878;2023-11-19T03:44:32;4.70;;;3.43;;
19396;SDS011;9834;48.076;11.878;2023-11-19T03:47:01;6.97;;;3.90;;
19396;SDS011;9834;48.076;11.878;2023-11-19T03:50:01;3.23;;;2.80;;
19396;SDS011;9834;48.076;11.878;2023-11-19T03:52:30;4.00;;;3.30;;
19396;SDS011;9834;48.076;11.878;2023-11-19T03:55:11;3.63;;;2.97;;
19396;SDS011;9834;48.076;11.878;2023-11-19T03:57:41;3.80;;;3.27;;
19396;SDS011;9834;48.076;11.878;2023-11-19T04:00:14;4.60;;;3.27;;
19396;SDS011;9834;48.076;11.878;2023-11-19T04:02:50;4.10;;;3.27;;
19396;SDS011;9834;48.076;11.878;2023-11-19T04:05:18;4.70;;;2.93;;
19396;SDS011;9834;48.076;11.878;2023-11-19T04:07:48;4.30;;;2.97;;
19396;SDS011;9834;48.076;11.878;2023-11-19T04:10:16;4.37;;;3.23;;
19396;SDS011;9834;48.076;11.878;2023-11-19T04:12:43;4.20;;;3.37;;
19396;SDS011;9834;48.076;11.878;2023-11-19T04:15:16;5.23;;;3.17;;
19396;SDS011;9834;48.076;11.878;2023-11-19T04:17:43;2.40;;;2.20;;
19396;SDS011;9834;48.076;11.878;2023-11-19T04:20:15;5.33;;;3.10;;
19396;SDS011;9834;48.076;11.878;2023-11-19T04:22:42;4.33;;;3.07;;
19396;SDS011;9834;48.076;11.878;2023-11-19T04:25:09;5.53;;;3.13;;
19396;SDS011;9834;48.076;11.878;2023-11-19T04:27:37;4.80;;;3.57;;
19396;SDS011;9834;48.076;11.878;2023-11-19T04:30:05;3.80;;;3.20;;
19396;SDS011;9834;48.076;11.878;2023-11-19T04:32:35;4.20;;;2.77;;
19396;SDS011;9834;48.076;11.878;2023-11-19T04:35:02;2.87;;;2.57;;
19396;SDS011;9834;48.076;11.878;2023-11-19T04:37:34;3.43;;;2.30;;
19396;SDS011;9834;48.076;11.878;2023-11-19T04:40:05;4.00;;;2.87;;
19396;SDS011;9834;48.076;11.878;2023-11-19T04:42:34;5.33;;;3.47;;
19396;SDS011;9834;48.076;11.878;2023-11-19T04:45:01;4.73;;;3.73;;
19396;SDS011;9834;48.076;11.878;2023-11-19T04:47:31;4.47;;;3.17;;
19396;SDS011;9834;48.076;11.878;2023-11-19T04:50:02;4.03;;;2.50;;
19396;SDS011;9834;48.076;11.878;2023-11-19T04:52:33;4.43;;;3.23;;
19396;SDS011;9834;48.076;11.878;2023-11-19T04:55:07;4.60;;;3.00;;
19396;SDS011;9834;48.076;11.878;2023-11-19T04:57:36;4.60;;;3.53;;
19396;SDS011;9834;48.076;11.878;2023-11-19T05:00:04;4.03;;;3.37;;
19396;SDS011;9834;48.076;11.878;2023-11-19T05:02:33;7.13;;;3.87;;
19396;SDS011;9834;48.076;11.878;2023-11-19T05:05:00;3.73;;;3.10;;
19396;SDS011;9834;48.076;11.878;2023-11-19T05:07:29;5.10;;;3.17;;
19396;SDS011;9834;48.076;11.878;2023-11-19T05:10:05;9.00;;;3.07;;
19396;SDS011;9834;48.076;11.878;2023-11-19T05:12:33;1.30;;;1.20;;
19396;SDS011;9834;48.076;11.878;2023-11-19T05:15:04;1.10;;;0.73;;
19396;SDS011;9834;48.076;11.878;2023-11-19T05:17:35;0.80;;;0.73;;
19396;SDS011;9834;48.076;11.878;2023-11-19T05:20:03;0.60;;;0.50;;
19396;SDS011;9834;48.076;11.878;2023-11-19T05:22:38;0.77;;;0.50;;
19396;SDS011;9834;48.076;11.878;2023-11-19T05:25:07;0.50;;;0.50;;
19396;SDS011;9834;48.076;11.878;2023-11-19T05:27:38;0.63;;;0.63;;
19396;SDS011;9834;48.076;11.878;2023-11-19T05:30:16;0.40;;;0.40;;
19396;SDS011;9834;48.076;11.878;2023-11-19T05:32:43;1.83;;;1.10;;
19396;SDS011;9834;48.076;11.878;2023-11-19T05:35:15;1.00;;;0.80;;
19396;SDS011;9834;48.076;11.878;2023-11-19T05:37:45;0.80;;;0.77;;
19396;SDS011;9834;48.076;11.878;2023-11-19T05:40:18;0.23;;;0.23;;
19396;SDS011;9834;48.076;11.878;2023-11-19T05:42:45;0.57;;;0.57;;
19396;SDS011;9834;48.076;11.878;2023-11-19T05:45:21;0.77;;;0.63;;
19396;SDS011;9834;48.076;11.878;2023-11-19T05:47:52;0.53;;;0.53;;
19396;SDS011;9834;48.076;11.878;2023-11-19T05:50:22;0.97;;;0.50;;
19396;SDS011;9834;48.076;11.878;2023-11-19T05:52:49;0.40;;;0.40;;
19396;SDS011;9834;48.076;11.878;2023-11-19T05:55:19;0.40;;;0.40;;
19396;SDS011;9834;48.076;11.878;2023-11-19T05:57:48;0.30;;;0.30;;
19396;SDS011;9834;48.076;11.878;2023-11-19T06:00:22;0.30;;;0.30;;
19396;SDS011;9834;48.076;11.878;2023-11-19T06:02:52;0.37;;;0.23;;
19396;SDS011;9834;48.076;11.878;2023-11-19T06:05:20;0.30;;;0.30;;
19396;SDS011;9834;48.076;11.878;2023-11-19T06:07:47;0.30;;;0.30;;
19396;SDS011;9834;48.076;11.878;2023-11-19T06:10:16;0.60;;;0.60;;
19396;SDS011;9834;48.076;11.878;2023-11-19T06:12:52;0.43;;;0.40;;
19396;SDS011;9834;48.076;11.878;2023-11-19T06:15:24;0.40;;;0.40;;
19396;SDS011;9834;48.076;11.878;2023-11-19T06:17:51;0.40;;;0.40;;
19396;SDS011;9834;48.076;11.878;2023-11-19T06:20:29;0.23;;;0.23;;
19396;SDS011;9834;48.076;11.878;2023-11-19T06:23:02;0.40;;;0.40;;
19396;SDS011;9834;48.076;11.878;2023-11-19T06:25:30;0.73;;;0.30;;
19396;SDS011;9834;48.076;11.878;2023-11-19T06:27:59;0.53;;;0.30;;
19396;SDS011;9834;48.076;11.878;2023-11-19T06:30:29;0.30;;;0.30;;
19396;SDS011;9834;48.076;11.878;2023-11-19T06:33:00;0.43;;;0.20;;
19396;SDS011;9834;48.076;11.878;2023-11-19T06:35:31;0.27;;;0.27;;
19396;SDS011;9834;48.076;11.878;2023-11-19T06:38:10;0.73;;;0.50;;
19396;SDS011;9834;48.076;11.878;2023-11-19T06:40:37;0.27;;;0.27;;
19396;SDS011;9834;48.076;11.878;2023-11-19T06:43:12;0.23;;;0.23;;
19396;SDS011;9834;48.076;11.878;2023-11-19T06:45:39;0.30;;;0.30;;
19396;SDS011;9834;48.076;11.878;2023-11-19T06:48:06;1.60;;;0.50;;
19396;SDS011;9834;48.076;11.878;2023-11-19T06:50:34;0.30;;;0.30;;
19396;SDS011;9834;48.076;11.878;2023-11-19T06:53:01;0.30;;;0.30;;
19396;SDS011;9834;48.076;11.878;2023-11-19T06:55:30;0.20;;;0.20;;
19396;SDS011;9834;48.076;11.878;2023-11-19T06:57:59;0.47;;;0.27;;
19396;SDS011;9834;48.076;11.878;2023-11-19T07:00:29;0.50;;;0.30;;
19396;SDS011;9834;48.076;11.878;2023-11-19T07:02:58;0.10;;;0.10;;
19396;SDS011;9834;48.076;11.878;2023-11-19T07:05:25;0.10;;;0.10;;
19396;SDS011;9834;48.076;11.878;2023-11-19T07:07:56;0.20;;;0.20;;
19396;SDS011;9834;48.076;11.878;2023-11-19T07:10:26;0.10;;;0.10;;
19396;SDS011;9834;48.076;11.878;2023-11-19T07:12:55;0.20;;;0.20;;
19396;SDS011;9834;48.076;11.878;2023-11-19T07:15:31;0.10;;;0.10;;
19396;SDS011;9834;48.076;11.878;2023-11-19T07:17:59;0.30;;;0.10;;
19396;SDS011;9834;48.076;11.878;2023-11-19T07:20:32;0.13;;;0.13;;
19396;SDS011;9834;48.076;11.878;2023-11-19T07:23:00;0.30;;;0.30;;
19396;SDS011;9834;48.076;11.878;2023-11-19T07:25:31;0.30;;;0.30;;
19396;SDS011;9834;48.076;11.878;2023-11-19T07:28:00;0.20;;;0.20;;
19396;SDS011;9834;48.076;11.878;2023-11-19T07:30:30;0.20;;;0.20;;
19396;SDS011;9834;48.076;11.878;2023-11-19T07:32:57;0.20;;;0.20;;
19396;SDS011;9834;48.076;11.878;2023-11-19T07:35:24;0.10;;;0.10;;
19396;SDS011;9834;48.076;11.878;2023-11-19T07:37:52;0.10;;;0.10;;
19396;SDS011;9834;48.076;11.878;2023-11-19T07:40:19;0.20;;;0.20;;
19396;SDS011;9834;48.076;11.878;2023-11-19T07:42:46;0.10;;;0.10;;
19396;SDS011;9834;48.076;11.878;2023-11-19T07:45:14;0.17;;;0.17;;
19396;SDS011;9834;48.076;11.878;2023-11-19T07:47:45;0.10;;;0.10;;
19396;SDS011;9834;48.076;11.878;2023-11-19T07:50:12;0.10;;;0.10;;
19396;SDS011;9834;48.076;11.878;2023-11-19T07:52:45;0.10;;;0.10;;
19396;SDS011;9834;48.076;11.878;2023-11-19T07:55:13;0.20;;;0.20;;
19396;SDS011;9834;48.076;11.878;2023-11-19T07:57:40;0.10;;;0.10;;
19396;SDS011;9834;48.076;11.878;2023-11-19T08:00:08;0.40;;;0.30;;
19396;SDS011;9834;48.076;11.878;2023-11-19T08:02:37;0.20;;;0.20;;
19396;SDS011;9834;48.076;11.878;2023-11-19T08:05:07;0.20;;;0.20;;
19396;SDS011;9834;48.076;11.878;2023-11-19T08:07:41;0.40;;;0.20;;
19396;SDS011;9834;48.076;11.878;2023-11-19T08:10:12;0.40;;;0.30;;
19396;SDS011;9834;48.076;11.878;2023-11-19T08:12:40;0.10;;;0.10;;
19396;SDS011;9834;48.076;11.878;2023-11-19T08:15:10;0.10;;;0.10;;
19396;SDS011;9834;48.076;11.878;2023-11-19T08:17:40;0.40;;;0.30;;
19396;SDS011;9834;48.076;11.878;2023-11-19T08:20:18;0.43;;;0.17;;
19396;SDS011;9834;48.076;11.878;2023-11-19T08:22:48;0.30;;;0.30;;
19396;SDS011;9834;48.076;11.878;2023-11-19T08:25:15;0.40;;;0.20;;
19396;SDS011;9834;48.076;11.878;2023-11-19T08:27:42;0.10;;;0.10;;
19396;SDS011;9834;48.076;11.878;2023-11-19T08:30:12;0.20;;;0.20;;
19396;SDS011;9834;48.076;11.878;2023-11-19T08:32:53;1.93;;;0.20;;
19396;SDS011;9834;48.076;11.878;2023-11-19T08:35:22;0.20;;;0.20;;
19396;SDS011;9834;48.076;11.878;2023-11-19T08:37:52;0.13;;;0.13;;
19396;SDS011;9834;48.076;11.878;2023-11-19T08:40:27;0.13;;;0.13;;
19396;SDS011;9834;48.076;11.878;2023-11-19T08:42:54;0.20;;;0.20;;
19396;SDS011;9834;48.076;11.878;2023-11-19T08:45:31;0.20;;;0.20;;
19396;SDS011;9834;48.076;11.878;2023-11-19T08:47:58;0.20;;;0.20;;
19396;SDS011;9834;48.076;11.878;2023-11-19T08:50:32;0.23;;;0.23;;
19396;SDS011;9834;48.076;11.878;2023-11-19T08:53:00;0.60;;;0.50;;
19396;SDS011;9834;48.076;11.878;2023-11-19T08:55:32;0.33;;;0.33;;
19396;SDS011;9834;48.076;11.878;2023-11-19T08:58:02;0.40;;;0.33;;
19396;SDS011;9834;48.076;11.878;2023-11-19T09:00:32;0.40;;;0.33;;
19396;SDS011;9834;48.076;11.878;2023-11-19T09:03:04;0.83;;;0.50;;
19396;SDS011;9834;48.076;11.878;2023-11-19T09:05:39;0.40;;;0.37;;
19396;SDS011;9834;48.076;11.878;2023-11-19T09:08:06;0.40;;;0.40;;
19396;SDS011;9834;48.076;11.878;2023-11-19T09:10:37;0.73;;;0.40;;
19396;SDS011;9834;48.076;11.878;2023-11-19T09:13:17;0.20;;;0.20;;
19396;SDS011;9834;48.076;11.878;2023-11-19T09:15:44;1.33;;;0.23;;
19396;SDS011;9834;48.076;11.878;2023-11-19T09:18:14;0.30;;;0.30;;
19396;SDS011;9834;48.076;11.878;2023-11-19T09:20:46;0.33;;;0.33;;
19396;SDS011;9834;48.076;11.878;2023-11-19T09:23:13;0.20;;;0.20;;
19396;SDS011;9834;48.076;11.878;2023-11-19T09:25:45;0.40;;;0.40;;
19396;SDS011;9834;48.076;11.878;2023-11-19T09:28:23;0.30;;;0.23;;
19396;SDS011;9834;48.076;11.878;2023-11-19T09:30:55;0.60;;;0.30;;
19396;SDS011;9834;48.076;11.878;2023-11-19T09:33:39;0.30;;;0.30;;
19396;SDS011;9834;48.076;11.878;2023-11-19T09:36:11;0.20;;;0.20;;
19396;SDS011;9834;48.076;11.878;2023-11-19T09:38:41;0.20;;;0.20;;
19396;SDS011;9834;48.076;11.878;2023-11-19T09:41:09;0.20;;;0.20;;
19396;SDS011;9834;48.076;11.878;2023-11-19T09:43:41;0.33;;;0.33;;
19396;SDS011;9834;48.076;11.878;2023-11-19T09:46:14;1.40;;;0.40;;
19396;SDS011;9834;48.076;11.878;2023-11-19T09:48:42;0.37;;;0.27;;
19396;SDS011;9834;48.076;11.878;2023-11-19T09:51:12;0.30;;;0.30;;
19396;SDS011;9834;48.076;11.878;2023-11-19T09:53:52;1.07;;;0.40;;
19396;SDS011;9834;48.076;11.878;2023-11-19T09:56:22;0.20;;;0.20;;
19396;SDS011;9834;48.076;11.878;2023-11-19T09:58:50;0.87;;;0.50;;
19396;SDS011;9834;48.076;11.878;2023-11-19T10:01:17;0.30;;;0.30;;
19396;SDS011;9834;48.076;11.878;2023-11-19T10:03:45;0.47;;;0.20;;
19396;SDS011;9834;48.076;11.878;2023-11-19T10:06:15;0.20;;;0.20;;
19396;SDS011;9834;48.076;11.878;2023-11-19T10:08:44;0.30;;;0.20;;
19396;SDS011;9834;48.076;11.878;2023-11-19T10:14:02;0.10;;;0.10;;
19396;SDS011;9834;48.076;11.878;2023-11-19T10:16:30;0.30;;;0.20;;
19396;SDS011;9834;48.076;11.878;2023-11-19T10:19:01;0.27;;;0.27;;
19396;SDS011;9834;48.076;11.878;2023-11-19T10:21:46;0.23;;;0.20;;
19396;SDS011;9834;48.076;11.878;2023-11-19T10:24:14;0.20;;;0.20;;
19396;SDS011;9834;48.076;11.878;2023-11-19T10:26:57;0.40;;;0.40;;
19396;SDS011;9834;48.076;11.878;2023-11-19T10:29:29;0.20;;;0.20;;
19396;SDS011;9834;48.076;11.878;2023-11-19T10:31:57;0.30;;;0.30;;
19396;SDS011;9834;48.076;11.878;2023-11-19T10:34:24;0.20;;;0.20;;
19396;SDS011;9834;48.076;11.878;2023-11-19T10:40:03;0.30;;;0.30;;
19396;SDS011;9834;48.076;11.878;2023-11-19T10:42:31;0.10;;;0.10;;
19396;SDS011;9834;48.076;11.878;2023-11-19T10:44:58;0.20;;;0.20;;
19396;SDS011;9834;48.076;11.878;2023-11-19T10:47:26;0.20;;;0.20;;
19396;SDS011;9834;48.076;11.878;2023-11-19T10:50:06;0.23;;;0.23;;
19396;SDS011;9834;48.076;11.878;2023-11-19T10:52:39;0.10;;;0.10;;
19396;SDS011;9834;48.076;11.878;2023-11-19T10:55:07;0.20;;;0.20;;
19396;SDS011;9834;48.076;11.878;2023-11-19T10:57:39;0.20;;;0.20;;
19396;SDS011;9834;48.076;11.878;2023-11-19T11:00:13;0.20;;;0.20;;
19396;SDS011;9834;48.076;11.878;2023-11-19T11:02:45;0.33;;;0.33;;
19396;SDS011;9834;48.076;11.878;2023-11-19T11:05:24;0.20;;;0.20;;
19396;SDS011;9834;48.076;11.878;2023-11-19T11:07:56;0.20;;;0.20;;
19396;SDS011;9834;48.076;11.878;2023-11-19T11:10:25;0.30;;;0.20;;
19396;SDS011;9834;48.076;11.878;2023-11-19T11:12:55;0.10;;;0.10;;
19396;SDS011;9834;48.076;11.878;2023-11-19T11:15:26;0.10;;;0.10;;
19396;SDS011;9834;48.076;11.878;2023-11-19T11:17:57;0.57;;;0.20;;
19396;SDS011;9834;48.076;11.878;2023-11-19T11:20:33;0.30;;;0.27;;
19396;SDS011;9834;48.076;11.878;2023-11-19T11:23:11;0.43;;;0.30;;
19396;SDS011;9834;48.076;11.878;2023-11-19T11:25:56;0.20;;;0.20;;
19396;SDS011;9834;48.076;11.878;2023-11-19T11:28:52;0.20;;;0.20;;
19396;SDS011;9834;48.076;11.878;2023-11-19T11:31:35;0.10;;;0.10;;
19396;SDS011;9834;48.076;11.878;2023-11-19T11:34:17;0.23;;;0.23;;
19396;SDS011;9834;48.076;11.878;2023-11-19T11:37:06;0.30;;;0.30;;
19396;SDS011;9834;48.076;11.878;2023-11-19T11:39:50;0.30;;;0.20;;
19396;SDS011;9834;48.076;11.878;2023-11-19T11:42:37;0.17;;;0.17;;
19396;SDS011;9834;48.076;11.878;2023-11-19T11:45:07;0.13;;;0.13;;
19396;SDS011;9834;48.076;11.878;2023-11-19T11:50:52;0.10;;;0.10;;
19396;SDS011;9834;48.076;11.878;2023-11-19T11:53:25;0.20;;;0.20;;
19396;SDS011;9834;48.076;11.878;2023-11-19T11:55:56;0.17;;;0.17;;
19396;SDS011;9834;48.076;11.878;2023-11-19T11:58:29;0.20;;;0.20;;
19396;SDS011;9834;48.076;11.878;2023-11-19T12:01:03;0.20;;;0.20;;
19396;SDS011;9834;48.076;11.878;2023-11-19T12:03:44;0.13;;;0.13;;
19396;SDS011;9834;48.076;11.878;2023-11-19T12:06:12;0.20;;;0.20;;
19396;SDS011;9834;48.076;11.878;2023-11-19T12:08:39;0.10;;;0.10;;
19396;SDS011;9834;48.076;11.878;2023-11-19T12:11:09;0.10;;;0.10;;
19396;SDS011;9834;48.076;11.878;2023-11-19T12:13:53;0.10;;;0.10;;
19396;SDS011;9834;48.076;11.878;2023-11-19T12:16:27;0.10;;;0.10;;
19396;SDS011;9834;48.076;11.878;2023-11-19T12:18:56;0.20;;;0.20;;
19396;SDS011;9834;48.076;11.878;2023-11-19T12:21:30;0.10;;;0.10;;
19396;SDS011;9834;48.076;11.878;2023-11-19T12:23:58;0.20;;;0.20;;
19396;SDS011;9834;48.076;11.878;2023-11-19T12:26:35;0.10;;;0.10;;
19396;SDS011;9834;48.076;11.878;2023-11-19T12:29:04;0.10;;;0.10;;
19396;SDS011;9834;48.076;11.878;2023-11-19T12:31:32;0.20;;;0.20;;
19396;SDS011;9834;48.076;11.878;2023-11-19T12:34:16;0.10;;;0.10;;
19396;SDS011;9834;48.076;11.878;2023-11-19T12:36:52;0.10;;;0.10;;
19396;SDS011;9834;48.076;11.878;2023-11-19T12:39:19;0.10;;;0.10;;
19396;SDS011;9834;48.076;11.878;2023-11-19T12:41:51;0.10;;;0.10;;
19396;SDS011;9834;48.076;11.878;2023-11-19T12:44:19;0.10;;;0.10;;
19396;SDS011;9834;48.076;11.878;2023-11-19T12:47:02;0.10;;;0.10;;
19396;SDS011;9834;48.076;11.878;2023-11-19T12:49:31;0.20;;;0.20;;
19396;SDS011;9834;48.076;11.878;2023-11-19T12:52:11;0.10;;;0.10;;
19396;SDS011;9834;48.076;11.878;2023-11-19T12:54:39;0.10;;;0.10;;
19396;SDS011;9834;48.076;11.878;2023-11-19T12:57:08;0.10;;;0.10;;
19396;SDS011;9834;48.076;11.878;2023-11-19T13:02:46;0.10;;;0.10;;
19396;SDS011;9834;48.076;11.878;2023-11-19T13:05:24;0.10;;;0.10;;
19396;SDS011;9834;48.076;11.878;2023-11-19T13:08:02;0.20;;;0.20;;
19396;SDS011;9834;48.076;11.878;2023-11-19T13:10:31;0.10;;;0.10;;
19396;SDS011;9834;48.076;11.878;2023-11-19T13:13:07;0.20;;;0.20;;
19396;SDS011;9834;48.076;11.878;2023-11-19T13:15:38;0.20;;;0.20;;
19396;SDS011;9834;48.076;11.878;2023-11-19T13:18:11;0.30;;;0.20;;
19396;SDS011;9834;48.076;11.878;2023-11-19T13:20:39;0.10;;;0.10;;
19396;SDS011;9834;48.076;11.878;2023-11-19T13:23:07;0.30;;;0.30;;
19396;SDS011;9834;48.076;11.878;2023-11-19T13:25:38;0.97;;;0.30;;
19396;SDS011;9834;48.076;11.878;2023-11-19T13:28:13;0.47;;;0.20;;
19396;SDS011;9834;48.076;11.878;2023-11-19T13:30:41;0.20;;;0.20;;
19396;SDS011;9834;48.076;11.878;2023-11-19T13:33:13;0.20;;;0.20;;
19396;SDS011;9834;48.076;11.878;2023-11-19T13:35:43;0.17;;;0.17;;
19396;SDS011;9834;48.076;11.878;2023-11-19T13:38:10;0.27;;;0.27;;
19396;SDS011;9834;48.076;11.878;2023-11-19T13:40:41;0.67;;;0.27;;
19396;SDS011;9834;48.076;11.878;2023-11-19T13:43:08;0.30;;;0.30;;
19396;SDS011;9834;48.076;11.878;2023-11-19T13:45:39;0.30;;;0.30;;
19396;SDS011;9834;48.076;11.878;2023-11-19T13:48:07;0.20;;;0.20;;
19396;SDS011;9834;48.076;11.878;2023-11-19T13:50:38;0.30;;;0.30;;
19396;SDS011;9834;48.076;11.878;2023-11-19T13:53:10;0.70;;;0.20;;
19396;SDS011;9834;48.076;11.878;2023-11-19T13:55:37;0.20;;;0.20;;
19396;SDS011;9834;48.076;11.878;2023-11-19T13:58:08;0.10;;;0.10;;
19396;SDS011;9834;48.076;11.878;2023-11-19T14:00:38;0.93;;;0.30;;
19396;SDS011;9834;48.076;11.878;2023-11-19T14:03:14;0.20;;;0.20;;
19396;SDS011;9834;48.076;11.878;2023-11-19T14:05:41;0.40;;;0.37;;
19396;SDS011;9834;48.076;11.878;2023-11-19T14:08:09;0.30;;;0.30;;
19396;SDS011;9834;48.076;11.878;2023-11-19T14:10:39;0.20;;;0.20;;
19396;SDS011;9834;48.076;11.878;2023-11-19T14:13:07;0.30;;;0.30;;
19396;SDS011;9834;48.076;11.878;2023-11-19T14:15:34;0.30;;;0.30;;
19396;SDS011;9834;48.076;11.878;2023-11-19T14:18:06;0.17;;;0.17;;
19396;SDS011;9834;48.076;11.878;2023-11-19T14:20:33;0.30;;;0.30;;
19396;SDS011;9834;48.076;11.878;2023-11-19T14:23:01;0.50;;;0.30;;
19396;SDS011;9834;48.076;11.878;2023-11-19T14:25:28;0.57;;;0.33;;
19396;SDS011;9834;48.076;11.878;2023-11-19T14:28:06;0.13;;;0.13;;
19396;SDS011;9834;48.076;11.878;2023-11-19T14:30:38;0.20;;;0.20;;
19396;SDS011;9834;48.076;11.878;2023-11-19T14:33:14;0.63;;;0.30;;
19396;SDS011;9834;48.076;11.878;2023-11-19T14:35:44;0.20;;;0.20;;
19396;SDS011;9834;48.076;11.878;2023-11-19T14:38:20;0.30;;;0.20;;
19396;SDS011;9834;48.076;11.878;2023-11-19T14:40:53;0.13;;;0.13;;
19396;SDS011;9834;48.076;11.878;2023-11-19T14:43:20;0.20;;;0.20;;
19396;SDS011;9834;48.076;11.878;2023-11-19T14:45:49;0.10;;;0.10;;
19396;SDS011;9834;48.076;11.878;2023-11-19T14:48:21;0.10;;;0.10;;
19396;SDS011;9834;48.076;11.878;2023-11-19T14:50:54;0.90;;;0.37;;
19396;SDS011;9834;48.076;11.878;2023-11-19T14:53:21;0.20;;;0.20;;
19396;SDS011;9834;48.076;11.878;2023-11-19T14:55:51;0.20;;;0.20;;
19396;SDS011;9834;48.076;11.878;2023-11-19T14:58:21;0.20;;;0.20;;
19396;SDS011;9834;48.076;11.878;2023-11-19T15:00:51;0.20;;;0.20;;
19396;SDS011;9834;48.076;11.878;2023-11-19T15:03:18;0.20;;;0.20;;
19396;SDS011;9834;48.076;11.878;2023-11-19T15:05:47;0.20;;;0.20;;
19396;SDS011;9834;48.076;11.878;2023-11-19T15:08:16;0.30;;;0.30;;
19396;SDS011;9834;48.076;11.878;2023-11-19T15:10:58;0.97;;;0.40;;
19396;SDS011;9834;48.076;11.878;2023-11-19T15:13:27;0.10;;;0.10;;
19396;SDS011;9834;48.076;11.878;2023-11-19T15:15:54;0.93;;;0.30;;
19396;SDS011;9834;48.076;11.878;2023-11-19T15:18:21;0.13;;;0.13;;
19396;SDS011;9834;48.076;11.878;2023-11-19T15:21:02;0.20;;;0.20;;
19396;SDS011;9834;48.076;11.878;2023-11-19T15:23:36;0.60;;;0.27;;